Hayes, Virginia
Current Conditions -  °F | °C
As of 2:54 PM on Wednesday 17 Dec 2014 (Local Time) from KPHF Reporting Station
Clear Clear  
Wind Chill: 62°   Ceiling: Unl
Heat Index: 62°   Visibility: 10mi
Dew Point: 37°   Wind: 13mph
Humidity: 39%   Direction: 300°WNW
Pressure: 29.97"   Gusts: NA
Location:  37.28°N, 76.49°W
Report Text: KPHF 171954Z 30011KT 10SM CLR 17/03 A2997 RMK AO2 SLP147 T01670028
Loading
Personal Weather Stations






























Interactive Weather Map New forecast layout! Learn more

10-Day Weather Forecast

Advertisements
Track Severe Weather on mobile